createdAt,value
2019-02-24T00:01:08.139Z,6.50
2019-02-24T00:03:36.565Z,6.50
2019-02-24T00:06:05.244Z,6.50
2019-02-24T00:08:33.950Z,6.50
2019-02-24T00:11:02.387Z,6.40
2019-02-24T00:13:30.821Z,6.40
2019-02-24T00:15:59.256Z,6.30
2019-02-24T00:18:27.734Z,6.30
2019-02-24T00:20:56.210Z,6.30
2019-02-24T00:23:24.650Z,6.30
2019-02-24T00:25:53.081Z,6.20
2019-02-24T00:28:21.482Z,6.30
2019-02-24T00:30:49.916Z,6.20
2019-02-24T00:33:18.312Z,6.20
2019-02-24T00:35:46.743Z,6.20
2019-02-24T00:38:15.519Z,6.20
2019-02-24T00:40:43.912Z,6.20
2019-02-24T00:43:12.664Z,6.20
2019-02-24T00:45:41.052Z,6.20
2019-02-24T00:48:09.484Z,6.20
2019-02-24T00:50:37.900Z,6.20
2019-02-24T00:53:06.566Z,6.10
2019-02-24T00:55:34.971Z,6.10
2019-02-24T00:58:03.471Z,6.10
2019-02-24T01:00:32.069Z,6.00
2019-02-24T01:03:00.560Z,6.00
2019-02-24T01:05:28.998Z,5.90
2019-02-24T01:07:57.451Z,5.80
2019-02-24T01:10:26.816Z,5.80
2019-02-24T01:12:55.248Z,5.70
2019-02-24T01:15:23.656Z,5.70
2019-02-24T01:17:52.120Z,5.70
2019-02-24T01:20:20.487Z,5.60
2019-02-24T01:22:48.957Z,5.50
2019-02-24T01:25:17.631Z,5.50
2019-02-24T01:27:46.342Z,5.40
2019-02-24T01:30:14.818Z,5.30
2019-02-24T01:32:43.229Z,5.30
2019-02-24T01:35:11.643Z,5.20
2019-02-24T01:37:40.074Z,5.20
2019-02-24T01:40:08.873Z,5.10
2019-02-24T01:42:37.298Z,5.00
2019-02-24T01:45:07.156Z,4.90
2019-02-24T01:47:35.549Z,4.90
2019-02-24T01:50:05.878Z,4.80
2019-02-24T01:52:34.585Z,4.70
2019-02-24T01:55:03.039Z,4.60
2019-02-24T01:57:31.453Z,4.50
2019-02-24T01:59:59.853Z,4.40
2019-02-24T02:02:28.324Z,4.40
2019-02-24T02:04:58.521Z,4.30
2019-02-24T02:07:26.725Z,4.20
2019-02-24T02:09:55.127Z,4.10
2019-02-24T02:12:23.514Z,4.00
2019-02-24T02:14:51.896Z,3.90
2019-02-24T02:17:20.318Z,3.90
2019-02-24T02:19:48.890Z,3.80
2019-02-24T02:22:17.533Z,3.70
2019-02-24T02:24:45.920Z,3.70
2019-02-24T02:27:14.393Z,3.60
2019-02-24T02:29:42.778Z,3.50
2019-02-24T02:32:11.236Z,3.50
2019-02-24T02:34:39.633Z,3.50
2019-02-24T02:37:08.083Z,3.40
2019-02-24T02:39:36.504Z,3.30
2019-02-24T02:42:04.901Z,3.30
2019-02-24T02:44:33.314Z,3.20
2019-02-24T02:47:01.732Z,3.20
2019-02-24T02:49:30.179Z,3.10
2019-02-24T02:51:58.562Z,3.10
2019-02-24T02:54:27.012Z,3.00
2019-02-24T02:56:55.430Z,3.00
2019-02-24T02:59:23.833Z,3.00
2019-02-24T03:01:52.500Z,2.90
2019-02-24T03:04:20.944Z,2.90
2019-02-24T03:06:59.845Z,2.90
2019-02-24T03:09:28.555Z,2.80
2019-02-24T03:11:56.957Z,2.80
2019-02-24T03:14:25.377Z,2.80
2019-02-24T03:16:53.778Z,2.70
2019-02-24T03:19:22.220Z,2.60
2019-02-24T03:21:50.702Z,2.60
2019-02-24T03:24:19.115Z,2.60
2019-02-24T03:26:47.534Z,2.50
2019-02-24T03:29:15.954Z,2.50
2019-02-24T03:31:44.443Z,2.40
2019-02-24T03:34:12.911Z,2.40
2019-02-24T03:36:41.313Z,2.30
2019-02-24T03:39:09.762Z,2.30
2019-02-24T03:41:38.500Z,2.20
2019-02-24T03:44:06.919Z,2.20
2019-02-24T03:46:35.347Z,2.20
2019-02-24T03:49:03.747Z,2.10
2019-02-24T03:51:32.234Z,2.10
2019-02-24T03:54:00.736Z,2.00
2019-02-24T03:56:29.121Z,2.00
2019-02-24T03:58:57.794Z,2.00
2019-02-24T04:01:26.217Z,1.90
2019-02-24T04:03:54.648Z,1.90
2019-02-24T04:06:23.119Z,1.80
2019-02-24T04:08:51.556Z,1.80
2019-02-24T04:11:19.980Z,1.70
2019-02-24T04:13:48.372Z,1.70
2019-02-24T04:16:16.826Z,1.60
2019-02-24T04:18:45.240Z,1.60
2019-02-24T04:21:13.736Z,1.60
2019-02-24T04:23:42.386Z,1.50
2019-02-24T04:26:10.787Z,1.50
2019-02-24T04:28:39.227Z,1.40
2019-02-24T04:31:07.606Z,1.40
2019-02-24T04:33:36.003Z,1.40
2019-02-24T04:36:04.419Z,1.40
2019-02-24T04:38:32.833Z,1.30
2019-02-24T04:41:01.229Z,1.30
2019-02-24T04:43:29.644Z,1.30
2019-02-24T04:45:58.384Z,1.30
2019-02-24T04:48:26.812Z,1.20
2019-02-24T04:50:55.487Z,1.20
2019-02-24T04:53:23.959Z,1.10
2019-02-24T04:55:52.375Z,1.10
2019-02-24T04:58:20.799Z,1.10
2019-02-24T05:00:49.210Z,1.00
2019-02-24T05:03:17.622Z,1.00
2019-02-24T05:05:46.027Z,1.00
2019-02-24T05:08:14.755Z,0.90
2019-02-24T05:10:43.150Z,0.90
2019-02-24T05:13:11.549Z,0.90
2019-02-24T05:15:39.957Z,0.90
2019-02-24T05:18:08.402Z,0.80
2019-02-24T05:20:36.796Z,0.80
2019-02-24T05:23:05.216Z,0.70
2019-02-24T05:25:33.932Z,0.70
2019-02-24T05:28:02.329Z,0.70
2019-02-24T05:30:30.736Z,0.70
2019-02-24T05:32:59.152Z,0.70
2019-02-24T05:35:27.539Z,0.70
2019-02-24T05:37:55.980Z,0.80
2019-02-24T05:40:24.368Z,0.80
2019-02-24T05:42:52.763Z,0.80
2019-02-24T05:45:21.149Z,0.80
2019-02-24T05:47:49.559Z,0.80
2019-02-24T05:50:17.969Z,0.80
2019-02-24T05:52:46.393Z,0.80
2019-02-24T05:55:15.165Z,0.70
2019-02-24T05:57:43.588Z,0.70
2019-02-24T06:00:11.970Z,0.70
2019-02-24T06:02:40.405Z,0.70
2019-02-24T06:05:08.796Z,0.60
2019-02-24T06:07:37.211Z,0.60
2019-02-24T06:10:05.980Z,0.60
2019-02-24T06:12:34.398Z,0.60
2019-02-24T06:15:02.860Z,0.50
2019-02-24T06:17:31.257Z,0.50
2019-02-24T06:19:59.645Z,0.50
2019-02-24T06:22:28.032Z,0.40
2019-02-24T06:24:56.457Z,0.40
2019-02-24T06:27:24.857Z,0.40
2019-02-24T06:29:53.367Z,0.40
2019-02-24T06:32:21.748Z,0.40
2019-02-24T06:34:50.149Z,0.30
2019-02-24T06:37:18.549Z,0.30
2019-02-24T06:39:46.989Z,0.30
2019-02-24T06:42:15.380Z,0.20
2019-02-24T06:44:43.798Z,0.20
2019-02-24T06:47:12.204Z,0.20
2019-02-24T06:49:40.628Z,0.20
2019-02-24T06:52:09.031Z,0.20
2019-02-24T06:54:37.450Z,0.20
2019-02-24T06:57:06.083Z,0.20
2019-02-24T06:59:34.516Z,0.20
2019-02-24T07:02:02.983Z,0.30
2019-02-24T07:04:31.417Z,0.30
2019-02-24T07:06:59.800Z,0.30
2019-02-24T07:09:28.218Z,0.30
2019-02-24T07:11:56.614Z,0.40
2019-02-24T07:14:25.032Z,0.40
2019-02-24T07:16:53.419Z,0.50
2019-02-24T07:19:21.852Z,0.60
2019-02-24T07:21:50.248Z,0.70
2019-02-24T07:24:18.649Z,0.70
2019-02-24T07:26:47.048Z,0.80
2019-02-24T07:29:15.443Z,0.90
2019-02-24T07:31:44.154Z,1.00
2019-02-24T07:34:12.584Z,1.00
2019-02-24T07:36:40.975Z,1.10
2019-02-24T07:39:09.459Z,1.20
2019-02-24T07:41:37.906Z,1.20
2019-02-24T07:44:06.312Z,1.40
2019-02-24T07:46:34.765Z,1.40
2019-02-24T07:49:03.173Z,1.60
2019-02-24T07:51:31.992Z,1.70
2019-02-24T07:54:00.962Z,1.80
2019-02-24T07:56:29.352Z,2.00
2019-02-24T07:58:57.765Z,2.10
2019-02-24T08:01:26.173Z,2.20
2019-02-24T08:03:54.573Z,2.40
2019-02-24T08:06:23.056Z,2.50
2019-02-24T08:08:51.480Z,2.70
2019-02-24T08:11:19.947Z,2.80
2019-02-24T08:13:48.417Z,3.00
2019-02-24T08:16:16.862Z,3.20
2019-02-24T08:18:49.548Z,3.30
2019-02-24T08:21:15.369Z,3.40
2019-02-24T08:23:43.771Z,3.60
2019-02-24T08:26:12.193Z,3.80
2019-02-24T08:28:40.562Z,3.90
2019-02-24T08:31:09.035Z,4.10
2019-02-24T08:33:37.456Z,4.20
2019-02-24T08:36:05.859Z,4.40
2019-02-24T08:38:34.268Z,4.50
2019-02-24T08:41:02.702Z,4.70
2019-02-24T08:43:31.167Z,4.80
2019-02-24T08:45:59.559Z,4.90
2019-02-24T08:48:28.040Z,5.00
2019-02-24T08:50:56.809Z,5.10
2019-02-24T08:53:25.262Z,5.30
2019-02-24T08:55:53.679Z,5.40
2019-02-24T08:58:22.065Z,5.60
2019-02-24T09:00:51.318Z,5.70
2019-02-24T09:03:19.892Z,5.80
2019-02-24T09:05:48.320Z,6.00
2019-02-24T09:08:17.009Z,6.10
2019-02-24T09:10:45.445Z,6.30
2019-02-24T09:13:13.816Z,6.40
2019-02-24T09:15:42.240Z,6.50
2019-02-24T09:18:10.712Z,6.70
2019-02-24T09:20:39.585Z,6.80
2019-02-24T09:23:08.260Z,6.90
2019-02-24T09:25:36.773Z,7.00
2019-02-24T09:28:05.196Z,7.20
2019-02-24T09:30:33.609Z,7.30
2019-02-24T09:33:02.341Z,7.40
2019-02-24T09:35:30.921Z,7.50
2019-02-24T09:37:59.507Z,7.60
2019-02-24T09:40:27.913Z,7.70
2019-02-24T09:42:56.313Z,7.90
2019-02-24T09:45:24.996Z,8.00
2019-02-24T09:47:53.383Z,8.10
2019-02-24T09:50:21.799Z,8.20
2019-02-24T09:52:50.401Z,8.30
2019-02-24T09:55:18.759Z,8.50
2019-02-24T09:57:47.243Z,8.60
2019-02-24T10:00:16.566Z,8.70
2019-02-24T10:02:45.087Z,8.90
2019-02-24T10:05:13.461Z,9.10
2019-02-24T10:07:41.877Z,9.20
2019-02-24T10:10:11.603Z,9.30
2019-02-24T10:12:40.054Z,9.50
2019-02-24T10:15:13.396Z,9.60
2019-02-24T10:17:41.820Z,9.80
2019-02-24T10:20:11.353Z,9.80
2019-02-24T10:22:39.772Z,10.00
2019-02-24T10:25:08.994Z,10.10
2019-02-24T10:27:37.402Z,10.30
2019-02-24T10:30:14.163Z,10.40
2019-02-24T10:32:42.561Z,10.60
2019-02-24T10:35:10.953Z,10.70
2019-02-24T10:37:39.465Z,10.90
2019-02-24T10:40:15.782Z,11.10
2019-02-24T10:42:44.183Z,11.20
2019-02-24T10:45:15.207Z,11.40
2019-02-24T10:47:43.601Z,11.50
2019-02-24T10:50:13.738Z,11.60
2019-02-24T10:52:42.151Z,11.70
2019-02-24T10:55:10.553Z,11.90
2019-02-24T10:57:39.029Z,12.10
2019-02-24T11:00:12.834Z,12.20
2019-02-24T11:02:41.203Z,12.30
2019-02-24T11:05:09.643Z,12.50
2019-02-24T11:07:38.059Z,12.60
2019-02-24T11:10:09.096Z,12.70
2019-02-24T11:12:37.468Z,12.90
2019-02-24T11:15:12.771Z,13.00
2019-02-24T11:17:41.505Z,13.20
2019-02-24T11:20:17.541Z,13.30
2019-02-24T11:22:45.903Z,13.40
2019-02-24T11:25:14.304Z,13.60
2019-02-24T11:27:42.669Z,13.70
2019-02-24T11:30:12.302Z,13.90
2019-02-24T11:32:41.581Z,14.00
2019-02-24T11:35:13.133Z,14.20
2019-02-24T11:37:41.502Z,14.30
2019-02-24T11:40:11.646Z,14.50
2019-02-24T11:42:40.050Z,14.60
2019-02-24T11:45:09.395Z,14.80
2019-02-24T11:47:37.782Z,14.90
2019-02-24T11:50:08.610Z,15.00
2019-02-24T11:52:37.007Z,15.20
2019-02-24T11:55:06.665Z,15.30
2019-02-24T11:57:35.043Z,15.50
2019-02-24T12:00:03.507Z,15.70
2019-02-24T12:02:34.547Z,15.90
2019-02-24T12:05:02.015Z,16.10
2019-02-24T12:07:30.466Z,16.30
2019-02-24T12:09:58.917Z,16.60
2019-02-24T12:12:27.391Z,16.80
2019-02-24T12:14:55.790Z,16.90
2019-02-24T12:17:24.203Z,17.10
2019-02-24T12:19:52.660Z,17.30
2019-02-24T12:22:21.065Z,17.50
2019-02-24T12:24:49.748Z,17.50
2019-02-24T12:27:18.166Z,17.50
2019-02-24T12:29:46.553Z,17.50
2019-02-24T12:32:15.239Z,17.50
2019-02-24T12:34:43.890Z,17.50
2019-02-24T12:37:12.586Z,17.50
2019-02-24T12:39:40.968Z,17.60
2019-02-24T12:42:09.361Z,17.70
2019-02-24T12:44:37.752Z,17.90
2019-02-24T12:47:07.271Z,18.10
2019-02-24T12:49:35.666Z,18.40
2019-02-24T12:52:04.111Z,18.70
2019-02-24T12:54:32.491Z,18.90
2019-02-24T12:57:01.194Z,19.10
2019-02-24T12:59:29.578Z,19.30
2019-02-24T13:02:05.447Z,19.50
2019-02-24T13:04:28.901Z,19.60
2019-02-24T13:06:57.700Z,19.70
2019-02-24T13:09:26.433Z,19.80
2019-02-24T13:11:54.894Z,20.10
2019-02-24T13:14:23.693Z,20.60
2019-02-24T13:16:52.092Z,21.20
2019-02-24T13:19:20.456Z,21.80
2019-02-24T13:21:48.887Z,22.30
2019-02-24T13:24:17.277Z,23.00
2019-02-24T13:26:45.689Z,23.80
2019-02-24T13:29:14.104Z,24.60
2019-02-24T13:31:42.575Z,25.60
2019-02-24T13:34:10.976Z,26.40
2019-02-24T13:36:39.281Z,27.30
2019-02-24T13:39:07.711Z,27.90
2019-02-24T13:41:36.067Z,28.70
2019-02-24T13:44:04.463Z,29.30
2019-02-24T13:46:32.861Z,30.00
2019-02-24T13:49:01.518Z,30.70
2019-02-24T13:51:29.991Z,31.30
2019-02-24T13:53:58.420Z,31.90
2019-02-24T13:56:26.791Z,32.40
2019-02-24T13:58:55.180Z,32.90
2019-02-24T14:01:23.859Z,33.30
2019-02-24T14:03:52.281Z,33.70
2019-02-24T14:06:20.670Z,34.10
2019-02-24T14:08:49.304Z,34.40
2019-02-24T14:11:17.702Z,34.70
2019-02-24T14:13:46.080Z,35.00
2019-02-24T14:16:14.495Z,35.20
2019-02-24T14:18:42.864Z,35.50
2019-02-24T14:21:11.248Z,35.70
2019-02-24T14:23:39.656Z,35.90
2019-02-24T14:26:08.056Z,36.00
2019-02-24T14:28:36.425Z,36.20
2019-02-24T14:31:04.836Z,36.30
2019-02-24T14:33:33.225Z,36.50
2019-02-24T14:36:03.183Z,36.50
2019-02-24T14:38:31.615Z,36.60
2019-02-24T14:40:59.984Z,36.80
2019-02-24T14:43:28.363Z,37.10
2019-02-24T14:45:56.752Z,37.40
2019-02-24T14:48:25.136Z,37.60
2019-02-24T14:50:53.527Z,37.80
2019-02-24T14:53:21.960Z,37.90
2019-02-24T14:55:50.314Z,38.00
2019-02-24T14:58:18.762Z,38.10
2019-02-24T15:00:47.258Z,38.10
2019-02-24T15:03:15.695Z,38.20
2019-02-24T15:05:44.400Z,38.30
2019-02-24T15:08:12.787Z,38.40
2019-02-24T15:10:41.158Z,38.60
2019-02-24T15:13:09.573Z,38.70
2019-02-24T15:15:37.984Z,38.70
2019-02-24T15:18:06.402Z,38.80
2019-02-24T15:20:34.797Z,38.90
2019-02-24T15:23:03.210Z,39.10
2019-02-24T15:25:31.594Z,39.10
2019-02-24T15:27:59.997Z,39.20
2019-02-24T15:30:30.732Z,39.20
2019-02-24T15:32:59.129Z,39.20
2019-02-24T15:35:27.490Z,39.20
2019-02-24T15:37:55.900Z,39.20
2019-02-24T15:40:24.279Z,39.10
2019-02-24T15:42:52.978Z,39.00
2019-02-24T15:45:21.394Z,38.90
2019-02-24T15:47:49.752Z,38.80
2019-02-24T15:50:18.252Z,38.60
2019-02-24T15:52:46.620Z,38.00
2019-02-24T15:55:15.760Z,36.80
2019-02-24T15:57:44.143Z,35.50
2019-02-24T16:00:17.450Z,34.00
2019-02-24T16:02:46.175Z,32.70
2019-02-24T16:05:14.545Z,31.30
2019-02-24T16:07:42.944Z,30.00
2019-02-24T16:10:18.978Z,28.90
2019-02-24T16:12:47.706Z,27.80
2019-02-24T16:15:19.594Z,26.90
2019-02-24T16:17:47.986Z,26.00
2019-02-24T16:20:21.988Z,25.20
2019-02-24T16:22:50.403Z,24.40
2019-02-24T16:25:19.374Z,23.70
2019-02-24T16:27:47.784Z,23.10
2019-02-24T16:30:16.449Z,22.50
2019-02-24T16:32:44.866Z,21.90
2019-02-24T16:35:14.925Z,21.40
2019-02-24T16:37:43.311Z,20.90
2019-02-24T16:40:16.728Z,20.40
2019-02-24T16:42:45.092Z,20.00
2019-02-24T16:45:15.036Z,19.60
2019-02-24T16:47:43.451Z,19.30
2019-02-24T16:50:14.439Z,18.90
2019-02-24T16:52:42.877Z,18.60
2019-02-24T16:55:13.186Z,18.20
2019-02-24T16:57:41.603Z,17.90
2019-02-24T17:00:13.126Z,17.70
2019-02-24T17:02:41.557Z,17.40
2019-02-24T17:05:09.963Z,17.10
2019-02-24T17:07:38.363Z,16.90
2019-02-24T17:10:10.006Z,16.60
2019-02-24T17:12:38.424Z,16.40
2019-02-24T17:15:09.580Z,16.10
2019-02-24T17:17:38.059Z,15.90
2019-02-24T17:20:09.978Z,15.70
2019-02-24T17:22:38.376Z,15.50
2019-02-24T17:25:08.448Z,15.30
2019-02-24T17:27:36.910Z,15.10
2019-02-24T17:30:08.582Z,14.90
2019-02-24T17:32:36.975Z,14.70
2019-02-24T17:35:07.303Z,14.50
2019-02-24T17:37:35.720Z,14.30
2019-02-24T17:40:06.930Z,14.10
2019-02-24T17:42:35.391Z,13.90
2019-02-24T17:45:04.261Z,13.70
2019-02-24T17:47:32.740Z,13.60
2019-02-24T17:50:01.462Z,13.40
2019-02-24T17:52:29.896Z,13.20
2019-02-24T17:54:59.924Z,13.10
2019-02-24T17:57:30.302Z,12.90
2019-02-24T17:59:58.694Z,12.70
2019-02-24T18:02:27.105Z,12.60
2019-02-24T18:04:55.524Z,12.50
2019-02-24T18:07:23.966Z,12.30
2019-02-24T18:09:52.655Z,12.20
2019-02-24T18:12:21.333Z,12.10
2019-02-24T18:14:49.761Z,12.00
2019-02-24T18:17:18.160Z,11.80
2019-02-24T18:19:46.635Z,11.70
2019-02-24T18:22:15.048Z,11.60
2019-02-24T18:24:43.477Z,11.50
2019-02-24T18:27:12.008Z,11.40
2019-02-24T18:29:40.464Z,11.30
2019-02-24T18:32:08.930Z,11.20
2019-02-24T18:34:37.423Z,11.10
2019-02-24T18:37:05.898Z,11.00
2019-02-24T18:39:34.289Z,10.90
2019-02-24T18:42:02.771Z,10.80
2019-02-24T18:44:31.269Z,10.70
2019-02-24T18:46:59.717Z,10.60
2019-02-24T18:49:28.121Z,10.50
2019-02-24T18:51:57.416Z,10.50
2019-02-24T18:54:34.364Z,10.40
2019-02-24T18:56:56.088Z,10.30
2019-02-24T18:59:24.484Z,10.20
2019-02-24T19:01:53.963Z,10.10
2019-02-24T19:04:23.641Z,10.00
2019-02-24T19:06:52.089Z,10.00
2019-02-24T19:09:20.402Z,9.90
2019-02-24T19:11:48.817Z,9.80
2019-02-24T19:14:17.496Z,9.70
2019-02-24T19:16:45.918Z,9.70
2019-02-24T19:19:14.295Z,9.60
2019-02-24T19:21:44.321Z,9.50
2019-02-24T19:24:14.644Z,9.40
2019-02-24T19:26:43.060Z,9.30
2019-02-24T19:29:11.455Z,9.20
2019-02-24T19:31:39.887Z,9.20
2019-02-24T19:34:08.297Z,9.00
2019-02-24T19:36:37.056Z,8.90
2019-02-24T19:39:05.705Z,8.80
2019-02-24T19:41:34.101Z,8.80
2019-02-24T19:44:02.507Z,8.70
2019-02-24T19:46:30.957Z,8.60
2019-02-24T19:48:59.406Z,8.60
2019-02-24T19:51:27.817Z,8.50
2019-02-24T19:53:56.263Z,8.40
2019-02-24T19:56:24.689Z,8.40
2019-02-24T19:58:55.985Z,8.30
2019-02-24T20:01:24.381Z,8.20
2019-02-24T20:03:54.433Z,8.10
2019-02-24T20:06:24.451Z,8.00
2019-02-24T20:08:52.970Z,7.90
2019-02-24T20:11:21.386Z,7.90
2019-02-24T20:13:50.083Z,7.80
2019-02-24T20:16:18.621Z,7.60
2019-02-24T20:18:47.135Z,7.60
2019-02-24T20:21:15.591Z,7.50
2019-02-24T20:23:44.020Z,7.40
2019-02-24T20:26:13.682Z,7.40
2019-02-24T20:28:42.175Z,7.30
2019-02-24T20:31:10.563Z,7.30
2019-02-24T20:33:39.024Z,7.20
2019-02-24T20:36:07.422Z,7.20
2019-02-24T20:38:35.849Z,7.10
2019-02-24T20:41:04.247Z,7.10
2019-02-24T20:43:32.654Z,7.10
2019-02-24T20:46:01.130Z,7.00
2019-02-24T20:48:29.825Z,6.90
2019-02-24T20:50:58.559Z,6.90
2019-02-24T20:53:28.267Z,6.90
2019-02-24T20:55:57.104Z,6.80
2019-02-24T20:58:25.552Z,6.80
2019-02-24T21:00:54.272Z,6.70
2019-02-24T21:03:22.758Z,6.60
2019-02-24T21:05:51.151Z,6.60
2019-02-24T21:08:19.826Z,6.50
2019-02-24T21:10:48.339Z,6.40
2019-02-24T21:13:19.758Z,6.40
2019-02-24T21:15:48.144Z,6.30
2019-02-24T21:18:16.587Z,6.20
2019-02-24T21:20:45.014Z,6.20
2019-02-24T21:23:13.537Z,6.10
2019-02-24T21:25:41.941Z,6.00
2019-02-24T21:28:10.382Z,5.90
2019-02-24T21:30:38.777Z,5.90
2019-02-24T21:33:07.268Z,5.80
2019-02-24T21:35:35.680Z,5.70
2019-02-24T21:38:04.111Z,5.70
2019-02-24T21:40:32.619Z,5.70
2019-02-24T21:43:01.034Z,5.60
2019-02-24T21:45:29.563Z,5.50
2019-02-24T21:47:58.002Z,5.50
2019-02-24T21:50:26.477Z,5.50
2019-02-24T21:52:54.915Z,5.50
2019-02-24T21:55:23.313Z,5.50
2019-02-24T21:57:51.749Z,5.50
2019-02-24T22:00:24.298Z,5.50
2019-02-24T22:02:53.013Z,5.40
2019-02-24T22:05:21.433Z,5.40
2019-02-24T22:07:49.858Z,5.40
2019-02-24T22:10:18.320Z,5.30
2019-02-24T22:12:46.762Z,5.30
2019-02-24T22:15:17.307Z,5.20
2019-02-24T22:17:45.708Z,5.20
2019-02-24T22:20:15.174Z,5.10
2019-02-24T22:22:43.824Z,5.10
2019-02-24T22:25:13.419Z,5.10
2019-02-24T22:27:41.810Z,5.00
2019-02-24T22:30:13.395Z,4.90
2019-02-24T22:32:41.808Z,4.90
2019-02-24T22:35:10.238Z,4.80
2019-02-24T22:37:38.653Z,4.80
2019-02-24T22:40:11.734Z,4.80
2019-02-24T22:42:40.275Z,4.70
2019-02-24T22:45:11.956Z,4.70
2019-02-24T22:47:40.338Z,4.60
2019-02-24T22:50:09.783Z,4.60
2019-02-24T22:52:38.175Z,4.50
2019-02-24T22:55:11.462Z,4.50
2019-02-24T22:57:39.854Z,4.50
2019-02-24T23:00:23.170Z,4.40
2019-02-24T23:02:51.585Z,4.40
2019-02-24T23:05:19.996Z,4.40
2019-02-24T23:07:49.886Z,4.30
2019-02-24T23:10:18.339Z,4.30
2019-02-24T23:12:46.728Z,4.20
2019-02-24T23:15:15.225Z,4.20
2019-02-24T23:17:43.587Z,4.10
2019-02-24T23:20:12.002Z,4.20
2019-02-24T23:22:40.395Z,4.10
2019-02-24T23:25:08.817Z,4.10
2019-02-24T23:27:37.198Z,4.10
2019-02-24T23:30:07.749Z,4.00
2019-02-24T23:32:36.121Z,4.00
2019-02-24T23:35:06.080Z,4.00
2019-02-24T23:37:34.488Z,3.90
2019-02-24T23:40:03.941Z,3.90
2019-02-24T23:42:32.427Z,3.90
2019-02-24T23:45:09.729Z,3.80
2019-02-24T23:47:30.946Z,3.80
2019-02-24T23:49:59.467Z,3.80
2019-02-24T23:52:27.892Z,3.80
2019-02-24T23:54:56.620Z,3.70
2019-02-24T23:57:25.017Z,3.70
2019-02-24T23:59:53.449Z,3.70
